Time;durP1;ratioP1;P1;durP2;ratioP2;P2;SDS_P1;SDS_P2;PMS_P1;PMS_P2;Temp;Humidity;BMP_temperature;BMP_pressure;BME280_temperature;BME280_humidity;BME280_pressure;Samples;Min_cycle;Max_cycle;Signal;HPM_P1;HPM_P2
2023/03/21 00:00:22;;;;;;;6.20;3.85;;;;;11.30;98775.00;;;;5012747;28;20045;-57
2023/03/21 00:02:49;;;;;;;9.20;4.07;;;;;11.30;98772.00;;;;5014663;28;20453;-58
2023/03/21 00:05:16;;;;;;;7.45;4.10;;;;;11.20;98774.00;;;;5011596;28;20050;-58
2023/03/21 00:07:43;;;;;;;5.38;3.45;;;;;11.20;98771.00;;;;5012861;28;20056;-59
2023/03/21 00:10:09;;;;;;;5.65;3.22;;;;;11.20;98770.00;;;;5010845;28;20053;-57
2023/03/21 00:12:49;;;;;;;7.10;4.65;;;;;11.20;98771.00;;;;5012361;28;20518;-56
2023/03/21 00:15:17;;;;;;;7.88;4.03;;;;;11.10;98765.00;;;;5011216;28;20395;-57
2023/03/21 00:17:49;;;;;;;8.20;3.72;;;;;11.10;98765.00;;;;5011473;28;20498;-57
2023/03/21 00:20:16;;;;;;;6.97;3.58;;;;;11.10;98765.00;;;;5011920;28;20519;-58
2023/03/21 00:22:42;;;;;;;5.38;3.47;;;;;11.10;98753.00;;;;5012563;28;20049;-56
2023/03/21 00:25:09;;;;;;;7.65;3.33;;;;;11.10;98761.00;;;;5011254;28;20053;-56
2023/03/21 00:27:36;;;;;;;6.43;3.67;;;;;11.10;98756.00;;;;5012449;28;20041;-57
2023/03/21 00:30:23;;;;;;;8.93;3.90;;;;;11.00;98744.00;;;;5011684;28;20096;-58
2023/03/21 00:32:50;;;;;;;9.32;4.65;;;;;11.00;98749.00;;;;5012467;28;20478;-59
2023/03/21 00:35:22;;;;;;;8.13;4.63;;;;;11.00;98755.00;;;;5012301;28;20586;-59
2023/03/21 00:38:10;;;;;;;5.25;4.00;;;;;11.00;98753.00;;;;5024724;28;20042;-56
2023/03/21 00:40:36;;;;;;;7.38;3.92;;;;;11.00;98745.00;;;;5011618;28;20499;-58
2023/03/21 00:43:22;;;;;;;7.78;4.47;;;;;11.00;98742.00;;;;5012432;28;20052;-57
2023/03/21 00:45:50;;;;;;;5.63;3.30;;;;;11.00;98736.00;;;;5010839;28;20049;-57
2023/03/21 00:48:17;;;;;;;7.20;4.22;;;;;10.80;98731.00;;;;5010903;28;20046;-56
2023/03/21 00:50:45;;;;;;;6.65;3.63;;;;;10.70;98728.00;;;;5011729;28;20199;-56
2023/03/21 00:53:14;;;;;;;6.53;3.33;;;;;10.70;98729.00;;;;5012251;28;20044;-57
2023/03/21 00:55:41;;;;;;;5.07;3.35;;;;;10.80;98727.00;;;;5010665;28;20049;-59
2023/03/21 00:58:07;;;;;;;7.22;4.03;;;;;10.80;98715.00;;;;5010634;28;20057;-56
2023/03/21 01:00:37;;;;;;;5.38;3.20;;;;;10.80;98718.00;;;;5026538;28;20061;-56
2023/03/21 01:03:06;;;;;;;5.70;2.95;;;;;10.70;98724.00;;;;5011882;28;20069;-57
2023/03/21 01:06:03;;;;;;;;;;;;;10.60;98714.00;;;;5012392;28;20042;-61
2023/03/21 01:08:31;;;;;;;6.65;3.25;;;;;10.40;98707.00;;;;5009942;28;19921;-58
2023/03/21 01:11:18;;;;;;;6.80;3.20;;;;;10.30;98705.00;;;;5011880;28;20046;-57
2023/03/21 01:13:45;;;;;;;7.25;3.22;;;;;10.30;98703.00;;;;5011783;28;20092;-60
2023/03/21 01:16:25;;;;;;;9.15;3.50;;;;;10.30;98694.00;;;;5013797;28;20563;-60
2023/03/21 01:18:52;;;;;;;8.75;3.75;;;;;10.30;98699.00;;;;5030818;28;20417;-59
2023/03/21 01:21:19;;;;;;;7.00;3.53;;;;;10.40;98704.00;;;;5034363;28;20038;-58
2023/03/21 01:23:45;;;;;;;7.80;3.58;;;;;10.30;98703.00;;;;5018208;28;20042;-59
2023/03/21 01:26:12;;;;;;;4.95;3.28;;;;;10.30;98707.00;;;;5017969;28;20050;-57
2023/03/21 01:28:41;;;;;;;8.23;3.42;;;;;10.30;98708.00;;;;5014435;28;20066;-58
2023/03/21 01:31:11;;;;;;;4.93;3.15;;;;;10.20;98702.00;;;;5016376;28;20053;-57
2023/03/21 01:33:38;;;;;;;6.43;3.42;;;;;10.00;98700.00;;;;5014333;28;20491;-58
2023/03/21 01:36:06;;;;;;;6.13;2.90;;;;;10.00;98696.00;;;;5014101;28;20049;-60
2023/03/21 01:38:41;;;;;;;5.93;3.58;;;;;10.00;98698.00;;;;5013427;28;20458;-58
2023/03/21 01:41:27;;;;;;;7.07;3.17;;;;;9.90;98693.00;;;;5014208;28;20066;-56
2023/03/21 01:44:17;;;;;;;6.25;3.50;;;;;9.90;98697.00;;;;5014335;28;20046;-62
2023/03/21 01:46:51;;;;;;;7.00;3.70;;;;;10.00;98691.00;;;;5013974;28;20068;-62
2023/03/21 01:49:48;;;;;;;8.00;3.40;;;;;9.90;98691.00;;;;5014829;28;20103;-61
2023/03/21 01:52:23;;;;;;;4.78;3.83;;;;;9.90;98686.00;;;;5015484;28;20402;-61
2023/03/21 01:55:12;;;;;;;5.50;3.63;;;;;9.80;98685.00;;;;5014158;28;20097;-61
2023/03/21 01:58:00;;;;;;;7.70;3.30;;;;;9.70;98682.00;;;;5014691;28;20037;-61
2023/03/21 02:01:05;;;;;;;7.78;3.65;;;;;9.60;98680.00;;;;4993983;28;20116;-60
2023/03/21 02:03:48;;;;;;;;;;;;;9.70;98681.00;;;;5013831;28;20055;-60
2023/03/21 02:07:17;;;;;;;5.18;2.78;;;;;9.80;98683.00;;;;5012399;28;19921;-62
2023/03/21 02:09:52;;;;;;;5.18;3.03;;;;;9.80;98677.00;;;;5012641;28;20042;-61
2023/03/21 02:12:21;;;;;;;3.97;3.00;;;;;9.80;98662.00;;;;5013462;28;20049;-62
2023/03/21 02:14:51;;;;;;;5.50;3.13;;;;;9.70;98673.00;;;;5013194;28;20068;-62
2023/03/21 02:17:50;;;;;;;7.53;3.40;;;;;9.60;98663.00;;;;4986235;28;20061;-62
2023/03/21 02:20:58;;;;;;;4.97;3.03;;;;;9.60;98674.00;;;;5012564;28;20054;-60
2023/03/21 02:23:51;;;;;;;5.65;3.72;;;;;9.50;98657.00;;;;5013115;28;20053;-62
2023/03/21 02:26:43;;;;;;;5.32;3.28;;;;;9.50;98659.00;;;;5012849;28;20410;-62
2023/03/21 02:29:53;;;;;;;5.63;3.53;;;;;9.70;98650.00;;;;5012496;28;20052;-62
2023/03/21 02:32:28;;;;;;;7.07;3.30;;;;;9.70;98650.00;;;;5014250;28;20096;-62
2023/03/21 02:35:10;;;;;;;6.25;3.35;;;;;9.60;98645.00;;;;5013075;28;20411;-62
2023/03/21 02:37:41;;;;;;;5.95;3.50;;;;;9.60;98637.00;;;;5013033;28;20045;-59
2023/03/21 02:40:23;;;;;;;6.40;2.90;;;;;9.50;98642.00;;;;5012096;28;20490;-59
2023/03/21 02:42:56;;;;;;;4.43;2.95;;;;;9.40;98635.00;;;;4996682;28;20050;-58
2023/03/21 02:45:48;;;;;;;4.88;2.90;;;;;9.40;98639.00;;;;5012826;28;20584;-58
2023/03/21 02:48:21;;;;;;;5.78;3.15;;;;;9.40;98634.00;;;;5012776;28;20550;-58
2023/03/21 02:50:57;;;;;;;4.78;2.95;;;;;9.40;98627.00;;;;5012708;28;20056;-57
2023/03/21 02:53:29;;;;;;;6.28;2.70;;;;;9.50;98634.00;;;;5029210;28;20050;-57
2023/03/21 02:55:59;;;;;;;6.65;3.10;;;;;9.50;98627.00;;;;5012550;28;20058;-57
2023/03/21 02:58:28;;;;;;;4.22;2.90;;;;;9.50;98626.00;;;;5011972;28;20523;-61
2023/03/21 03:00:57;;;;;;;4.53;2.72;;;;;9.60;98620.00;;;;5012073;28;20136;-57
2023/03/21 03:03:38;;;;;;;4.78;2.55;;;;;9.50;98624.00;;;;5012440;28;20132;-57
2023/03/21 03:06:22;;;;;;;7.60;2.45;;;;;9.50;98616.00;;;;5012126;28;20088;-62
2023/03/21 03:09:05;;;;;;;5.65;2.78;;;;;9.40;98625.00;;;;5011708;28;20053;-62
2023/03/21 03:11:43;;;;;;;6.90;3.22;;;;;9.30;98628.00;;;;5012239;28;20046;-62
2023/03/21 03:14:25;;;;;;;4.00;2.70;;;;;9.20;98619.00;;;;5012246;28;20064;-56
2023/03/21 03:17:37;;;;;;;7.75;2.70;;;;;9.10;98609.00;;;;5012047;28;20517;-58
2023/03/21 03:20:12;;;;;;;7.00;2.88;;;;;9.00;98611.00;;;;5011455;28;20042;-60
2023/03/21 03:23:13;;;;;;;5.47;2.72;;;;;8.90;98608.00;;;;5011983;28;20060;-57
2023/03/21 03:25:51;;;;;;;3.88;2.90;;;;;8.90;98616.00;;;;5028313;28;20073;-62
2023/03/21 03:28:25;;;;;;;4.25;2.72;;;;;8.80;98616.00;;;;4995889;28;20042;-62
2023/03/21 03:30:54;;;;;;;4.68;3.22;;;;;8.80;98613.00;;;;5011788;28;20132;-62
2023/03/21 03:33:44;;;;;;;5.80;3.13;;;;;8.80;98611.00;;;;5011726;28;20070;-62
2023/03/21 03:36:14;;;;;;;4.72;2.65;;;;;8.60;98606.00;;;;5011634;28;20096;-62
2023/03/21 03:39:01;;;;;;;5.30;3.15;;;;;8.60;98610.00;;;;5010761;28;20104;-62
2023/03/21 03:41:35;;;;;;;7.88;2.80;;;;;8.50;98620.00;;;;5012028;28;20450;-61
2023/03/21 03:44:24;;;;;;;;;;;;;8.50;98615.00;;;;5012189;28;20050;-62
2023/03/21 03:47:32;;;;;;;3.67;3.05;;;;;8.50;98623.00;;;;5011753;28;19928;-57
2023/03/21 03:50:24;;;;;;;6.93;3.40;;;;;8.50;98612.00;;;;4987297;28;20584;-57
2023/03/21 03:52:55;;;;;;;5.85;3.03;;;;;8.40;98614.00;;;;5012810;28;20080;-61
2023/03/21 03:55:33;;;;;;;5.05;3.05;;;;;8.40;98622.00;;;;5014535;28;20042;-57
2023/03/21 03:58:07;;;;;;;4.53;2.70;;;;;8.60;98624.00;;;;5011767;28;20443;-56
2023/03/21 04:00:49;;;;;;;5.10;3.05;;;;;8.60;98621.00;;;;5011118;28;20072;-58
2023/03/21 04:03:15;;;;;;;6.68;3.22;;;;;8.60;98618.00;;;;5011401;28;20041;-56
2023/03/21 04:05:45;;;;;;;5.15;2.90;;;;;8.60;98620.00;;;;5011265;28;20053;-57
2023/03/21 04:08:14;;;;;;;5.28;2.85;;;;;8.60;98626.00;;;;5012413;28;20441;-56
2023/03/21 04:10:44;;;;;;;6.10;3.00;;;;;8.70;98631.00;;;;5010875;28;20481;-58
2023/03/21 04:13:12;;;;;;;4.28;2.70;;;;;8.90;98633.00;;;;5012737;28;20046;-59
2023/03/21 04:15:47;;;;;;;6.95;3.22;;;;;9.00;98629.00;;;;5011256;28;20400;-55
2023/03/21 04:18:15;;;;;;;4.93;2.80;;;;;8.90;98617.00;;;;5011046;28;20462;-57
2023/03/21 04:20:43;;;;;;;4.65;3.53;;;;;8.90;98627.00;;;;5011898;28;20125;-59
2023/03/21 04:23:11;;;;;;;4.88;2.88;;;;;9.00;98622.00;;;;5012420;28;20052;-56
2023/03/21 04:25:43;;;;;;;6.53;3.38;;;;;8.90;98618.00;;;;5011313;28;20073;-58
2023/03/21 04:28:24;;;;;;;5.70;3.45;;;;;9.00;98621.00;;;;5012138;28;20037;-57
2023/03/21 04:30:59;;;;;;;7.05;2.65;;;;;9.00;98610.00;;;;5011264;28;20050;-56
2023/03/21 04:33:43;;;;;;;5.47;2.97;;;;;9.10;98615.00;;;;5011080;28;20046;-56
2023/03/21 04:36:17;;;;;;;4.25;2.80;;;;;9.10;98614.00;;;;5010994;28;20046;-57
2023/03/21 04:38:47;;;;;;;4.47;3.05;;;;;9.10;98618.00;;;;5010444;28;20057;-57
2023/03/21 04:41:15;;;;;;;6.32;3.40;;;;;9.10;98610.00;;;;5011285;28;20041;-60
2023/03/21 04:43:41;;;;;;;5.53;3.83;;;;;9.10;98605.00;;;;5010930;28;20046;-58
2023/03/21 04:46:08;;;;;;;6.95;3.33;;;;;9.10;98607.00;;;;5027396;28;20046;-57
2023/03/21 04:48:34;;;;;;;7.10;3.35;;;;;9.10;98605.00;;;;5010229;28;20073;-57
2023/03/21 04:51:01;;;;;;;4.25;3.15;;;;;9.10;98611.00;;;;5012552;28;20515;-59
2023/03/21 04:53:27;;;;;;;6.88;3.42;;;;;9.10;98600.00;;;;5014996;28;20057;-57
2023/03/21 04:55:56;;;;;;;5.03;3.22;;;;;9.10;98587.00;;;;5014766;28;20053;-58
2023/03/21 04:58:23;;;;;;;6.80;3.72;;;;;9.10;98593.00;;;;5014171;28;20076;-60
2023/03/21 05:00:51;;;;;;;7.35;4.10;;;;;9.10;98607.00;;;;4997947;28;20050;-58
2023/03/21 05:03:20;;;;;;;13.10;5.47;;;;;9.00;98599.00;;;;5014520;28;20523;-58
2023/03/21 05:05:48;;;;;;;8.85;3.63;;;;;9.00;98597.00;;;;5016592;28;20269;-58
2023/03/21 05:08:17;;;;;;;6.40;3.55;;;;;9.00;98591.00;;;;5015922;28;20117;-57
2023/03/21 05:10:44;;;;;;;7.50;3.47;;;;;9.00;98596.00;;;;5014221;28;20050;-58
2023/03/21 05:13:11;;;;;;;6.53;3.30;;;;;9.00;98590.00;;;;5014719;28;20080;-58
2023/03/21 05:15:37;;;;;;;9.77;3.08;;;;;9.00;98592.00;;;;5014366;28;20052;-60
2023/03/21 05:18:09;;;;;;;7.47;3.30;;;;;9.00;98591.00;;;;5016025;28;20108;-58
2023/03/21 05:20:42;;;;;;;6.30;2.85;;;;;9.10;98603.00;;;;5014155;28;20042;-60
2023/03/21 05:23:10;;;;;;;6.97;3.50;;;;;9.10;98589.00;;;;5014600;28;20050;-57
2023/03/21 05:25:38;;;;;;;4.80;3.10;;;;;9.10;98589.00;;;;5014631;28;20078;-56
2023/03/21 05:28:20;;;;;;;7.70;3.67;;;;;9.10;98587.00;;;;5014802;28;20100;-58
2023/03/21 05:30:47;;;;;;;7.50;3.47;;;;;9.10;98587.00;;;;5014483;28;20078;-57
2023/03/21 05:33:15;;;;;;;6.53;3.47;;;;;9.10;98584.00;;;;5014920;28;20060;-57
2023/03/21 05:35:42;;;;;;;6.65;3.47;;;;;9.10;98583.00;;;;5014938;28;20045;-60
2023/03/21 05:38:10;;;;;;;7.68;3.30;;;;;9.10;98580.00;;;;5014825;28;20042;-60
2023/03/21 05:40:48;;;;;;;10.45;4.53;;;;;9.20;98584.00;;;;5014524;28;20046;-58
2023/03/21 05:43:16;;;;;;;21.67;9.98;;;;;9.30;98592.00;;;;5014979;28;20053;-59
2023/03/21 05:45:43;;;;;;;8.40;4.00;;;;;9.40;98594.00;;;;5014260;28;20081;-62
2023/03/21 05:48:10;;;;;;;4.82;3.40;;;;;9.50;98586.00;;;;5014122;28;20427;-59
2023/03/21 05:50:53;;;;;;;7.70;4.07;;;;;9.40;98587.00;;;;5014694;28;20065;-59
2023/03/21 05:53:21;;;;;;;11.63;5.60;;;;;9.40;98584.00;;;;5014952;28;20050;-59
2023/03/21 05:55:49;;;;;;;9.63;5.95;;;;;9.30;98587.00;;;;5014722;28;20045;-61
2023/03/21 05:58:33;;;;;;;10.20;6.05;;;;;9.20;98583.00;;;;5013615;28;20046;-59
2023/03/21 06:01:00;;;;;;;15.95;10.27;;;;;9.10;98583.00;;;;5013494;28;20052;-59
2023/03/21 06:03:31;;;;;;;16.65;10.15;;;;;9.20;98583.00;;;;5014118;28;20044;-59
2023/03/21 06:06:02;;;;;;;9.48;4.82;;;;;9.40;98586.00;;;;5014416;28;20098;-59
2023/03/21 06:08:35;;;;;;;14.38;6.32;;;;;9.40;98583.00;;;;5013199;28;20096;-59
2023/03/21 06:11:01;;;;;;;14.98;8.15;;;;;9.50;98592.00;;;;5013610;28;20461;-61
2023/03/21 06:13:31;;;;;;;10.57;4.88;;;;;9.70;98596.00;;;;5013653;28;20700;-58
2023/03/21 06:15:58;;;;;;;10.32;5.32;;;;;9.80;98593.00;;;;5013370;28;20525;-60
2023/03/21 06:18:25;;;;;;;9.07;4.20;;;;;9.80;98604.00;;;;5014359;28;20045;-60
2023/03/21 06:20:58;;;;;;;8.60;4.18;;;;;9.90;98590.00;;;;5013440;28;20042;-59
2023/03/21 06:23:24;;;;;;;8.48;4.38;;;;;10.10;98599.00;;;;5013358;28;20074;-59
2023/03/21 06:25:52;;;;;;;12.60;6.75;;;;;10.00;98598.00;;;;5013785;28;20177;-59
2023/03/21 06:28:19;;;;;;;12.25;6.60;;;;;9.90;98600.00;;;;5014037;28;20038;-61
2023/03/21 06:30:46;;;;;;;5.95;4.35;;;;;9.90;98602.00;;;;5012981;28;20576;-59
2023/03/21 06:33:17;;;;;;;5.10;3.85;;;;;10.00;98604.00;;;;5013407;28;20141;-59
2023/03/21 06:35:50;;;;;;;7.70;4.18;;;;;10.00;98613.00;;;;5014537;28;20045;-61
2023/03/21 06:38:16;;;;;;;7.55;3.92;;;;;10.00;98609.00;;;;5013033;28;20042;-59
2023/03/21 06:40:45;;;;;;;8.98;3.95;;;;;10.00;98615.00;;;;5013602;28;20053;-60
2023/03/21 06:43:13;;;;;;;7.15;4.07;;;;;10.00;98612.00;;;;5014114;28;20491;-59
2023/03/21 06:45:43;;;;;;;9.43;3.58;;;;;10.00;98603.00;;;;5013124;28;20383;-60
2023/03/21 06:48:11;;;;;;;6.50;3.83;;;;;10.10;98613.00;;;;5013003;28;20461;-61
2023/03/21 06:50:49;;;;;;;7.93;4.38;;;;;10.20;98614.00;;;;5012504;28;20081;-59
2023/03/21 06:53:19;;;;;;;6.47;4.35;;;;;10.30;98614.00;;;;5013887;28;20045;-60
2023/03/21 06:56:08;;;;;;;9.50;4.43;;;;;10.50;98608.00;;;;4983273;28;20054;-60
2023/03/21 06:58:35;;;;;;;6.53;3.80;;;;;10.60;98618.00;;;;5011731;28;20579;-59
2023/03/21 07:01:04;;;;;;;8.05;4.00;;;;;10.70;98619.00;;;;5012499;28;20100;-59
2023/03/21 07:03:36;;;;;;;9.48;3.85;;;;;10.80;98619.00;;;;5012478;28;20054;-60
2023/03/21 07:06:10;;;;;;;7.43;3.83;;;;;11.00;98610.00;;;;5013602;28;20050;-59
2023/03/21 07:08:38;;;;;;;7.25;3.90;;;;;11.10;98616.00;;;;5011794;28;20192;-59
2023/03/21 07:11:06;;;;;;;5.47;3.55;;;;;11.30;98608.00;;;;5012376;28;20045;-60
2023/03/21 07:13:33;;;;;;;11.63;4.13;;;;;11.40;98600.00;;;;5011508;28;20080;-60
2023/03/21 07:16:03;;;;;;;12.50;4.53;;;;;11.50;98599.00;;;;5011921;28;20060;-59
2023/03/21 07:18:30;;;;;;;8.18;4.28;;;;;11.60;98611.00;;;;5012647;28;20048;-59
2023/03/21 07:20:57;;;;;;;12.57;3.83;;;;;11.70;98603.00;;;;4995892;28;20056;-60
2023/03/21 07:23:25;;;;;;;7.93;3.88;;;;;11.80;98605.00;;;;5013364;28;20108;-60
2023/03/21 07:25:53;;;;;;;11.32;5.15;;;;;11.90;98601.00;;;;5011974;28;20479;-60
2023/03/21 07:28:21;;;;;;;13.65;5.07;;;;;12.00;98605.00;;;;5011727;28;20042;-60
2023/03/21 07:30:56;;;;;;;7.60;3.60;;;;;12.10;98606.00;;;;5011757;28;20053;-58
2023/03/21 07:33:24;;;;;;;12.60;3.92;;;;;12.20;98602.00;;;;5013222;28;20509;-60
2023/03/21 07:35:54;;;;;;;7.05;3.50;;;;;12.30;98603.00;;;;5011906;28;20392;-59
2023/03/21 07:38:20;;;;;;;6.72;3.60;;;;;12.40;98609.00;;;;5011655;28;20077;-59
2023/03/21 07:40:47;;;;;;;7.20;4.07;;;;;12.50;98608.00;;;;5013239;28;20387;-60
2023/03/21 07:43:15;;;;;;;6.20;2.95;;;;;12.50;98602.00;;;;5011853;28;20049;-59
2023/03/21 07:45:43;;;;;;;7.60;4.03;;;;;12.60;98608.00;;;;4997045;28;20049;-58
2023/03/21 07:48:16;;;;;;;7.68;4.38;;;;;12.70;98604.00;;;;5015189;28;20045;-58
2023/03/21 07:50:43;;;;;;;11.88;4.60;;;;;12.70;98608.00;;;;5013570;28;20486;-59
2023/03/21 07:53:09;;;;;;;12.13;5.07;;;;;12.80;98610.00;;;;5013736;28;20050;-58
2023/03/21 07:55:36;;;;;;;7.43;4.07;;;;;12.80;98609.00;;;;5012980;28;20458;-60
2023/03/21 07:58:04;;;;;;;11.73;4.97;;;;;12.80;98614.00;;;;5012992;28;20479;-59
2023/03/21 08:00:30;;;;;;;7.57;4.05;;;;;12.80;98608.00;;;;5010526;28;20045;-59
2023/03/21 08:02:58;;;;;;;9.05;4.03;;;;;12.80;98613.00;;;;5012774;28;20041;-59
2023/03/21 08:05:36;;;;;;;5.13;3.72;;;;;12.90;98608.00;;;;5011801;28;20144;-61
2023/03/21 08:08:04;;;;;;;14.70;4.97;;;;;13.00;98609.00;;;;5019027;28;20038;-59
2023/03/21 08:10:31;;;;;;;5.20;3.28;;;;;13.20;98610.00;;;;5018672;28;20056;-60
2023/03/21 08:12:58;;;;;;;5.63;2.40;;;;;13.20;98614.00;;;;5021199;28;20042;-56
2023/03/21 08:15:25;;;;;;;4.25;2.13;;;;;13.20;98604.00;;;;5019869;28;20049;-58
2023/03/21 08:17:51;;;;;;;6.15;2.58;;;;;13.20;98609.00;;;;5020140;28;20045;-60
2023/03/21 08:20:20;;;;;;;2.83;2.25;;;;;13.30;98625.00;;;;5020487;28;20052;-61
2023/03/21 08:22:48;;;;;;;5.55;2.25;;;;;13.30;98609.00;;;;5020315;28;20046;-62
2023/03/21 08:25:16;;;;;;;5.78;2.35;;;;;13.40;98611.00;;;;5020780;28;20076;-62
2023/03/21 08:27:45;;;;;;;6.90;2.40;;;;;13.40;98616.00;;;;5021031;28;20136;-62
2023/03/21 08:30:14;;;;;;;3.30;2.15;;;;;13.40;98615.00;;;;5019496;28;20049;-62
2023/03/21 08:32:41;;;;;;;5.72;2.10;;;;;13.40;98616.00;;;;5020543;28;20057;-62
2023/03/21 08:35:10;;;;;;;2.75;1.77;;;;;13.40;98608.00;;;;5019904;28;20042;-62
2023/03/21 08:37:38;;;;;;;3.30;2.13;;;;;13.40;98609.00;;;;5017941;28;20053;-62
2023/03/21 08:40:08;;;;;;;5.68;2.30;;;;;13.40;98621.00;;;;5020062;28;20057;-61
2023/03/21 08:42:36;;;;;;;3.58;2.28;;;;;13.40;98613.00;;;;5020508;28;20046;-62
2023/03/21 08:45:03;;;;;;;4.70;2.00;;;;;13.40;98621.00;;;;5020308;28;20042;-61
2023/03/21 08:47:30;;;;;;;5.25;1.83;;;;;13.30;98615.00;;;;5019223;28;20061;-62
2023/03/21 08:49:57;;;;;;;3.63;2.10;;;;;13.30;98611.00;;;;5014800;28;20063;-62
2023/03/21 08:52:25;;;;;;;4.70;2.50;;;;;13.40;98616.00;;;;5015743;28;20058;-60
2023/03/21 08:54:55;;;;;;;2.90;1.95;;;;;13.40;98609.00;;;;5017869;28;20050;-61
2023/03/21 08:57:22;;;;;;;5.75;2.38;;;;;13.50;98613.00;;;;5017958;28;20468;-60
2023/03/21 08:59:49;;;;;;;5.13;2.20;;;;;13.60;98619.00;;;;5015013;28;20049;-60
2023/03/21 09:02:16;;;;;;;3.88;2.22;;;;;13.70;98611.00;;;;5015103;28;20064;-61
2023/03/21 09:04:43;;;;;;;3.95;2.10;;;;;13.70;98611.00;;;;5016540;28;20053;-60
2023/03/21 09:07:13;;;;;;;2.33;2.10;;;;;13.80;98610.00;;;;5016747;28;20058;-61
2023/03/21 09:09:40;;;;;;;4.38;2.20;;;;;13.90;98608.00;;;;5016124;28;20046;-61
2023/03/21 09:12:07;;;;;;;4.40;1.90;;;;;13.80;98608.00;;;;5018021;28;20073;-61
2023/03/21 09:14:34;;;;;;;5.18;2.00;;;;;13.90;98601.00;;;;5018013;28;20056;-62
2023/03/21 09:17:00;;;;;;;3.78;1.90;;;;;13.90;98600.00;;;;5019699;28;20129;-59
2023/03/21 09:19:28;;;;;;;6.03;1.95;;;;;13.90;98603.00;;;;5020566;28;20052;-59
2023/03/21 09:21:56;;;;;;;3.72;1.80;;;;;14.00;98610.00;;;;5036765;28;20046;-59
2023/03/21 09:24:23;;;;;;;4.45;1.98;;;;;14.10;98608.00;;;;5022575;28;20045;-59
2023/03/21 09:26:50;;;;;;;2.65;2.08;;;;;14.20;98611.00;;;;5020172;28;20081;-59
2023/03/21 09:29:20;;;;;;;4.22;2.30;;;;;14.20;98614.00;;;;5018458;28;20078;-59
2023/03/21 09:31:47;;;;;;;4.75;2.40;;;;;14.20;98612.00;;;;5025304;28;20042;-59
2023/03/21 09:34:14;;;;;;;4.28;1.92;;;;;14.20;98611.00;;;;5025277;28;20101;-59
2023/03/21 09:36:43;;;;;;;3.70;2.42;;;;;14.20;98610.00;;;;5023685;28;20232;-60
2023/03/21 09:39:11;;;;;;;7.18;4.47;;;;;14.20;98611.00;;;;5026016;28;20049;-59
2023/03/21 09:41:51;;;;;;;4.00;2.20;;;;;14.20;98609.00;;;;5028503;28;20102;-59
2023/03/21 09:44:27;;;;;;;4.00;2.90;;;;;14.10;98613.00;;;;5028048;28;20050;-59
2023/03/21 09:47:02;;;;;;;5.68;2.75;;;;;14.10;98609.00;;;;5027232;28;20105;-60
2023/03/21 09:49:49;;;;;;;4.03;3.35;;;;;14.10;98617.00;;;;5023649;28;20042;-58
2023/03/21 09:52:23;;;;;;;8.18;6.57;;;;;14.20;98619.00;;;;5025732;28;20399;-58
2023/03/21 09:54:51;;;;;;;5.10;2.58;;;;;14.20;98608.00;;;;5024058;28;20058;-59
2023/03/21 09:57:32;;;;;;;4.07;2.53;;;;;14.30;98610.00;;;;5023115;28;20084;-59
2023/03/21 10:00:08;;;;;;;4.45;2.25;;;;;14.30;98612.00;;;;5022583;28;20073;-59
2023/03/21 10:02:40;;;;;;;3.67;2.20;;;;;14.40;98604.00;;;;5022707;28;20056;-59
2023/03/21 10:05:17;;;;;;;3.33;2.20;;;;;14.40;98605.00;;;;5021811;28;20054;-58
2023/03/21 10:07:55;;;;;;;3.90;2.28;;;;;14.60;98597.00;;;;5020082;28;20095;-59
2023/03/21 10:10:27;;;;;;;6.57;3.75;;;;;14.60;98599.00;;;;5018606;28;20069;-59
2023/03/21 10:12:55;;;;;;;5.47;2.90;;;;;14.60;98607.00;;;;5019339;28;20046;-59
2023/03/21 10:15:24;;;;;;;4.82;2.28;;;;;14.60;98607.00;;;;5019055;28;20499;-59
2023/03/21 10:17:59;;;;;;;6.20;3.15;;;;;14.70;98602.00;;;;5019272;28;20499;-62
2023/03/21 10:20:32;;;;;;;4.70;2.75;;;;;14.70;98600.00;;;;5016238;28;20052;-59
2023/03/21 10:23:03;;;;;;;3.60;2.53;;;;;14.70;98601.00;;;;5021021;28;20439;-58
2023/03/21 10:25:33;;;;;;;3.92;2.70;;;;;14.70;98592.00;;;;5021770;28;20046;-59
2023/03/21 10:28:02;;;;;;;4.57;2.88;;;;;14.80;98589.00;;;;5022440;28;20050;-59
2023/03/21 10:30:43;;;;;;;9.75;2.78;;;;;15.00;98591.00;;;;5022218;28;20046;-58
2023/03/21 10:33:16;;;;;;;4.97;2.83;;;;;15.20;98585.00;;;;5020574;28;20046;-58
2023/03/21 10:35:48;;;;;;;5.35;3.70;;;;;15.20;98586.00;;;;5020865;28;20042;-60
2023/03/21 10:38:18;;;;;;;7.75;2.95;;;;;15.40;98578.00;;;;5018171;28;20049;-61
2023/03/21 10:40:45;;;;;;;4.50;2.33;;;;;15.60;98580.00;;;;5018049;28;20077;-61
2023/03/21 10:43:32;;;;;;;4.38;2.67;;;;;15.90;98579.00;;;;5019804;28;20080;-59
2023/03/21 10:46:07;;;;;;;4.53;2.67;;;;;16.10;98574.00;;;;5018937;28;20046;-60
2023/03/21 10:48:37;;;;;;;4.18;2.60;;;;;16.30;98570.00;;;;5017451;28;20046;-59
2023/03/21 10:51:07;;;;;;;4.10;2.63;;;;;16.50;98568.00;;;;5016033;28;20509;-59
2023/03/21 10:53:40;;;;;;;6.82;2.65;;;;;16.70;98574.00;;;;5018209;28;20077;-60
2023/03/21 10:56:10;;;;;;;6.15;2.63;;;;;16.90;98565.00;;;;5017753;28;20495;-58
2023/03/21 10:58:44;;;;;;;4.55;2.40;;;;;17.10;98561.00;;;;5016047;28;20042;-59
2023/03/21 11:01:15;;;;;;;5.40;3.30;;;;;17.20;98569.00;;;;5013775;28;20053;-59
2023/03/21 11:03:45;;;;;;;5.13;2.70;;;;;17.30;98563.00;;;;5015067;28;20050;-59
2023/03/21 11:06:21;;;;;;;8.35;2.80;;;;;17.50;98570.00;;;;5016134;28;20097;-61
2023/03/21 11:08:53;;;;;;;4.30;2.28;;;;;17.70;98563.00;;;;5012788;28;20117;-61
2023/03/21 11:11:38;;;;;;;5.95;2.53;;;;;17.70;98563.00;;;;5013179;28;20042;-62
2023/03/21 11:14:18;;;;;;;5.13;2.35;;;;;17.60;98564.00;;;;5014278;28;20037;-62
2023/03/21 11:16:45;;;;;;;3.67;2.20;;;;;17.40;98566.00;;;;5014098;28;20049;-59
2023/03/21 11:19:34;;;;;;;2.88;2.20;;;;;17.50;98566.00;;;;5016573;28;20046;-60
2023/03/21 11:22:07;;;;;;;2.78;2.50;;;;;17.50;98557.00;;;;5014230;28;20060;-61
2023/03/21 11:24:34;;;;;;;4.00;2.38;;;;;17.60;98556.00;;;;5016048;28;20054;-62
2023/03/21 11:27:06;;;;;;;4.32;2.28;;;;;17.70;98556.00;;;;5015891;28;20077;-62
2023/03/21 11:29:36;;;;;;;5.90;3.15;;;;;17.80;98550.00;;;;5014381;28;20410;-60
2023/03/21 11:32:10;;;;;;;3.95;2.20;;;;;17.70;98547.00;;;;5013151;28;20058;-62
2023/03/21 11:34:49;;;;;;;3.88;2.35;;;;;17.60;98549.00;;;;5014292;28;20050;-61
2023/03/21 11:37:45;;;;;;;5.28;2.72;;;;;17.60;98544.00;;;;5014033;28;20057;-58
2023/03/21 11:40:24;;;;;;;5.88;2.10;;;;;17.50;98549.00;;;;5014527;28;20038;-58
2023/03/21 11:42:53;;;;;;;4.40;1.95;;;;;17.30;98553.00;;;;5014891;28;20137;-57
2023/03/21 11:45:20;;;;;;;3.08;1.98;;;;;17.30;98550.00;;;;5014048;28;20487;-57
2023/03/21 11:47:49;;;;;;;5.47;2.60;;;;;17.20;98550.00;;;;5014101;28;20419;-56
2023/03/21 11:50:36;;;;;;;6.88;2.60;;;;;17.00;98546.00;;;;5013675;28;20484;-57
2023/03/21 11:53:31;;;;;;;3.13;2.10;;;;;16.80;98546.00;;;;5012967;28;20462;-60
2023/03/21 11:56:07;;;;;;;3.72;2.20;;;;;16.80;98541.00;;;;5013184;28;20048;-58
2023/03/21 11:58:52;;;;;;;3.80;2.08;;;;;16.60;98530.00;;;;5012633;28;20437;-60
2023/03/21 12:01:53;;;;;;;3.92;2.38;;;;;16.30;98537.00;;;;5011644;28;20052;-57
2023/03/21 12:04:36;;;;;;;5.60;2.70;;;;;16.20;98534.00;;;;5013122;28;20047;-58
2023/03/21 12:07:21;;;;;;;4.45;2.47;;;;;16.10;98527.00;;;;5011835;28;20046;-57
2023/03/21 12:10:22;;;;;;;3.92;2.97;;;;;15.90;98528.00;;;;5012393;28;20046;-57
2023/03/21 12:12:59;;;;;;;4.80;2.60;;;;;15.90;98531.00;;;;5011395;28;20037;-56
2023/03/21 12:15:29;;;;;;;7.25;2.70;;;;;15.80;98536.00;;;;5012432;28;20052;-61
2023/03/21 12:18:13;;;;;;;3.22;2.92;;;;;15.80;98519.00;;;;5012512;28;20099;-59
2023/03/21 12:21:04;;;;;;;4.97;3.17;;;;;15.80;98516.00;;;;5011951;28;20038;-59
2023/03/21 12:24:00;;;;;;;4.85;3.10;;;;;15.80;98515.00;;;;5012223;28;20046;-61
2023/03/21 12:26:49;;;;;;;5.45;2.80;;;;;15.80;98515.00;;;;5010989;28;20538;-59
2023/03/21 12:29:52;;;;;;;5.22;3.03;;;;;15.70;98513.00;;;;5000701;28;20068;-61
2023/03/21 12:32:32;;;;;;;4.90;3.08;;;;;15.50;98516.00;;;;5011174;28;20046;-58
2023/03/21 12:35:09;;;;;;;5.88;3.60;;;;;15.40;98505.00;;;;5012572;28;20490;-59
2023/03/21 12:38:13;;;;;;;9.13;3.95;;;;;15.40;98510.00;;;;5011262;28;20056;-57
2023/03/21 12:41:04;;;;;;;4.65;3.30;;;;;15.30;98507.00;;;;5011552;28;20513;-57
2023/03/21 12:43:36;;;;;;;4.88;3.38;;;;;15.20;98502.00;;;;5012444;28;20103;-60
2023/03/21 12:46:10;;;;;;;4.20;3.72;;;;;15.20;98495.00;;;;5012649;28;20121;-57
2023/03/21 12:48:46;;;;;;;8.95;3.65;;;;;15.10;98506.00;;;;5012195;28;20502;-57
2023/03/21 12:51:21;;;;;;;5.47;3.53;;;;;15.00;98500.00;;;;5014357;28;20117;-60
2023/03/21 12:54:11;;;;;;;5.45;4.53;;;;;14.90;98503.00;;;;5012836;28;20085;-60